Time;durP1;ratioP1;P1;durP2;ratioP2;P2;SDS_P1;SDS_P2;PMS_P1;PMS_P2;Temp;Humidity;BMP_temperature;BMP_pressure;BME280_temperature;BME280_humidity;BME280_pressure;Samples;Min_cycle;Max_cycle;Signal;HPM_P1;HPM_P2
2021/12/26 00:01:19;;;;;;;27.70;18.75;;;;;;;4.90;67.80;94837.34;5028410;28;20030;-61
2021/12/26 00:03:44;;;;;;;26.45;17.77;;;;;;;5.00;68.02;94823.28;5027537;28;20056;-60
2021/12/26 00:06:14;;;;;;;23.63;16.33;;;;;;;4.97;67.43;94821.69;5028033;28;20489;-60
2021/12/26 00:08:42;;;;;;;24.65;17.42;;;;;;;4.84;67.21;94806.94;5026127;28;20261;-61
2021/12/26 00:11:08;;;;;;;31.70;18.15;;;;;;;5.00;67.27;94830.13;5019201;28;20034;-60
2021/12/26 00:13:35;;;;;;;29.00;18.70;;;;;;;4.75;68.04;94816.69;5022018;28;20034;-61
2021/12/26 00:16:01;;;;;;;26.80;18.08;;;;;;;4.80;68.60;94829.25;5029664;28;20516;-60
2021/12/26 00:18:27;;;;;;;25.90;18.10;;;;;;;4.61;68.50;94811.34;5029361;28;20037;-55
2021/12/26 00:20:53;;;;;;;32.17;19.05;;;;;;;4.79;68.47;94820.78;5030855;28;20106;-58
2021/12/26 00:23:18;;;;;;;27.08;18.25;;;;;;;4.94;68.03;94823.56;5030744;28;20394;-58
2021/12/26 00:25:44;;;;;;;27.88;19.25;;;;;;;4.89;67.92;94813.53;5030836;28;20064;-58
2021/12/26 00:28:10;;;;;;;28.40;18.27;;;;;;;4.99;67.94;94841.25;5030535;28;20112;-58
2021/12/26 00:30:36;;;;;;;25.33;18.10;;;;;;;4.83;67.61;94798.47;5030527;28;20485;-59
2021/12/26 00:33:02;;;;;;;28.10;18.85;;;;;;;5.02;67.47;94818.94;5030585;28;20036;-57
2021/12/26 00:35:28;;;;;;;24.77;18.20;;;;;;;4.80;68.25;94816.47;5029869;28;20032;-57
2021/12/26 00:37:54;;;;;;;30.88;20.80;;;;;;;4.81;68.48;94840.31;5030481;28;20041;-57
2021/12/26 00:40:21;;;;;;;30.38;20.05;;;;;;;4.83;68.40;94830.88;5030632;28;20037;-57
2021/12/26 00:42:49;;;;;;;30.65;20.92;;;;;;;4.83;68.43;94830.88;5030655;28;20035;-60
2021/12/26 00:45:16;;;;;;;34.17;21.30;;;;;;;4.68;68.85;94837.47;5030597;28;20129;-57
2021/12/26 00:47:42;;;;;;;30.30;22.13;;;;;;;4.05;69.45;94757.53;5029964;28;20087;-57
2021/12/26 00:50:13;;;;;;;31.17;19.95;;;;;;;4.53;69.52;94831.28;5030259;28;20036;-57
2021/12/26 00:52:39;;;;;;;28.83;20.45;;;;;;;4.56;69.46;94844.75;5030546;28;20033;-57
2021/12/26 00:55:08;;;;;;;46.80;31.50;;;;;;;4.70;68.76;94856.91;5030578;28;20547;-57
2021/12/26 00:57:33;;;;;;;49.10;30.77;;;;;;;4.51;68.50;94856.03;5030021;28;20057;-60
2021/12/26 00:59:59;;;;;;;59.40;37.15;;;;;;;4.27;68.80;94853.63;5029898;28;20025;-57
2021/12/26 01:02:24;;;;;;;60.85;36.53;;;;;;;4.14;69.06;94817.56;5030226;28;20052;-58
2021/12/26 01:04:50;;;;;;;56.65;36.33;;;;;;;3.92;68.99;94811.66;5028809;28;20065;-59
2021/12/26 01:07:38;;;;;;;57.58;35.90;;;;;;;3.91;70.17;94848.28;5030401;28;20060;-61
2021/12/26 01:10:05;;;;;;;62.83;35.70;;;;;;;4.00;69.91;94822.38;5030232;28;20116;-60
2021/12/26 01:12:31;;;;;;;52.67;34.58;;;;;;;3.92;70.25;94820.16;5029443;28;20108;-57
2021/12/26 01:15:03;;;;;;;45.15;32.33;;;;;;;3.97;70.42;94841.22;5030014;28;20530;-54
2021/12/26 01:17:28;;;;;;;52.20;32.45;;;;;;;3.95;70.56;94826.84;5029540;28;20508;-59
2021/12/26 01:19:55;;;;;;;52.28;31.23;;;;;;;4.07;70.56;94828.91;5029847;28;20034;-60
2021/12/26 01:22:24;;;;;;;49.97;32.40;;;;;;;3.92;70.20;94798.91;5029866;28;20044;-58
2021/12/26 01:24:56;;;;;;;54.80;33.50;;;;;;;3.83;70.43;94829.00;5029621;28;20025;-57
2021/12/26 01:27:25;;;;;;;55.85;35.08;;;;;;;3.80;70.94;94829.09;5029672;28;20511;-58
2021/12/26 01:29:51;;;;;;;47.08;32.65;;;;;;;3.79;71.30;94824.09;5029368;28;20034;-57
2021/12/26 01:32:17;;;;;;;51.85;31.45;;;;;;;3.78;71.20;94822.41;5029491;28;20087;-57
2021/12/26 01:34:44;;;;;;;53.63;33.15;;;;;;;3.87;71.24;94824.63;5029581;28;20021;-56
2021/12/26 01:37:10;;;;;;;57.15;34.25;;;;;;;4.04;70.80;94817.09;5029225;28;20033;-59
2021/12/26 01:39:36;;;;;;;53.70;32.90;;;;;;;3.89;70.61;94799.00;5029562;28;20041;-58
2021/12/26 01:42:03;;;;;;;50.13;31.65;;;;;;;3.91;71.03;94795.53;5029589;28;20033;-59
2021/12/26 01:44:30;;;;;;;52.83;33.15;;;;;;;3.86;71.37;94798.25;5029299;28;20159;-61
2021/12/26 01:46:57;;;;;;;52.70;32.97;;;;;;;3.88;71.33;94820.34;5028895;28;20538;-58
2021/12/26 01:49:26;;;;;;;50.08;30.50;;;;;;;3.95;71.10;94798.78;5029164;28;20025;-58
2021/12/26 01:51:55;;;;;;;52.17;32.28;;;;;;;4.14;70.73;94809.06;5029447;28;20026;-57
2021/12/26 01:57:05;;;;;;;48.80;32.42;;;;;;;4.22;70.05;94807.03;5029115;28;20461;-57
2021/12/26 01:59:32;;;;;;;48.65;31.98;;;;;;;4.22;70.09;94814.69;5028354;28;20037;-60
2021/12/26 02:01:59;;;;;;;52.03;30.92;;;;;;;4.09;69.89;94799.06;5028967;28;20422;-57
2021/12/26 02:04:29;;;;;;;51.22;29.80;;;;;;;3.97;70.22;94774.88;5028526;28;20465;-58
2021/12/26 02:07:00;;;;;;;44.60;28.90;;;;;;;4.06;70.42;94794.06;5028806;28;20025;-57
2021/12/26 02:09:25;;;;;;;48.65;29.30;;;;;;;3.73;70.74;94750.38;5028683;28;20042;-59
2021/12/26 02:11:52;;;;;;;46.50;27.70;;;;;;;4.00;70.55;94801.97;5028064;28;20048;-58
2021/12/26 02:14:18;;;;;;;45.75;26.58;;;;;;;4.02;70.52;94801.03;5028846;28;20025;-60
2021/12/26 02:16:43;;;;;;;42.83;26.88;;;;;;;3.90;70.27;94752.22;5028653;28;20029;-60
2021/12/26 02:19:09;;;;;;;36.83;25.27;;;;;;;4.11;70.17;94787.06;5028521;28;20087;-57
2021/12/26 02:24:26;;;;;;;36.90;25.02;;;;;;;4.10;70.40;94776.91;5028645;28;20080;-59
2021/12/26 02:29:42;;;;;;;37.05;23.80;;;;;;;4.29;69.50;94797.41;5028665;28;20106;-61
2021/12/26 02:32:08;;;;;;;37.60;21.10;;;;;;;4.37;69.25;94783.41;5028390;28;20463;-62
2021/12/26 02:34:34;;;;;;;33.17;21.85;;;;;;;4.25;69.23;94758.41;5028352;28;20025;-58
2021/12/26 02:36:59;;;;;;;34.88;23.38;;;;;;;4.33;69.03;94774.22;5027975;28;20039;-63
2021/12/26 02:39:25;;;;;;;35.72;21.67;;;;;;;4.42;69.34;94793.44;5028701;28;20049;-66
2021/12/26 02:41:51;;;;;;;33.50;22.90;;;;;;;4.44;69.32;94789.06;5028284;28;20552;-62
2021/12/26 02:44:17;;;;;;;31.23;21.90;;;;;;;4.50;69.64;94793.13;5028149;28;20025;-60
2021/12/26 02:46:43;;;;;;;32.00;21.33;;;;;;;4.59;68.83;94790.13;5028284;28;20029;-57
2021/12/26 02:49:09;;;;;;;32.13;20.70;;;;;;;4.66;68.09;94780.53;5028002;28;20071;-58
2021/12/26 02:51:34;;;;;;;33.60;20.35;;;;;;;4.51;68.33;94751.34;5028387;28;20460;-59
2021/12/26 02:54:00;;;;;;;30.08;19.05;;;;;;;4.74;68.34;94792.03;5028299;28;20449;-59
2021/12/26 02:56:26;;;;;;;23.25;17.67;;;;;;;4.68;68.19;94791.50;5028541;28;20528;-57
2021/12/26 02:58:52;;;;;;;25.27;17.55;;;;;;;4.66;68.28;94794.09;5027652;28;20050;-59
2021/12/26 03:01:25;;;;;;;27.38;17.10;;;;;;;4.14;68.20;94715.47;5028035;28;20021;-58
2021/12/26 03:03:50;;;;;;;26.65;16.92;;;;;;;4.64;68.03;94770.38;5028144;28;20034;-59
2021/12/26 03:06:26;;;;;;;26.27;17.35;;;;;;;4.76;68.33;94794.53;5028126;28;20412;-56
2021/12/26 03:08:54;;;;;;;26.67;17.05;;;;;;;4.72;68.26;94780.22;5028179;28;20085;-58
2021/12/26 03:11:20;;;;;;;24.23;15.98;;;;;;;4.42;67.70;94734.72;5027278;28;20061;-59
2021/12/26 03:13:46;;;;;;;26.90;16.92;;;;;;;4.83;67.44;94778.03;5028769;28;20056;-55
2021/12/26 03:16:12;;;;;;;23.38;15.15;;;;;;;4.69;67.86;94782.91;5032289;28;20029;-56
2021/12/26 03:18:37;;;;;;;24.52;15.15;;;;;;;4.70;67.87;94771.81;5031819;28;20025;-60
2021/12/26 03:21:03;;;;;;;23.10;15.60;;;;;;;4.52;67.98;94751.28;5032128;28;20026;-58
2021/12/26 03:23:29;;;;;;;24.05;14.95;;;;;;;4.96;67.41;94776.59;5031237;28;20097;-58
2021/12/26 03:25:56;;;;;;;22.83;14.20;;;;;;;4.91;67.22;94770.84;5031897;28;20030;-58
2021/12/26 03:28:22;;;;;;;23.58;14.98;;;;;;;4.70;67.08;94751.38;5032117;28;20032;-56
2021/12/26 03:30:49;;;;;;;20.13;13.45;;;;;;;4.79;67.53;94784.19;5031840;28;20025;-58
2021/12/26 03:33:14;;;;;;;21.02;14.52;;;;;;;4.72;67.70;94777.66;5031839;28;20033;-57
2021/12/26 03:35:41;;;;;;;23.98;15.30;;;;;;;4.58;68.95;94779.09;5031147;28;20032;-58
2021/12/26 03:38:08;;;;;;;21.67;14.57;;;;;;;4.81;67.56;94774.72;5031637;28;20038;-58
2021/12/26 03:40:34;;;;;;;23.17;15.13;;;;;;;4.77;67.77;94773.19;5031849;28;20108;-58
2021/12/26 03:43:00;;;;;;;21.23;14.20;;;;;;;4.77;68.49;94801.28;5031436;28;20025;-61
2021/12/26 03:45:25;;;;;;;23.55;15.23;;;;;;;4.74;68.76;94786.13;5031722;28;20036;-57
2021/12/26 03:47:51;;;;;;;29.52;16.50;;;;;;;4.32;68.63;94748.78;5031248;28;20026;-59
2021/12/26 03:50:19;;;;;;;21.02;14.30;;;;;;;4.67;68.90;94784.72;5031564;28;20068;-58
2021/12/26 03:52:46;;;;;;;21.90;15.35;;;;;;;4.73;68.97;94799.78;5031275;28;20559;-56
2021/12/26 03:55:13;;;;;;;21.20;15.38;;;;;;;4.83;68.16;94792.53;5031346;28;20100;-60
2021/12/26 03:57:38;;;;;;;22.38;15.90;;;;;;;4.80;67.47;94778.16;5031063;28;20064;-60
2021/12/26 04:00:07;;;;;;;23.10;16.08;;;;;;;5.02;67.42;94784.88;5030936;28;20026;-57
2021/12/26 04:02:32;;;;;;;21.35;14.43;;;;;;;4.62;68.25;94763.66;5031444;28;20500;-58
2021/12/26 04:04:57;;;;;;;25.27;15.65;;;;;;;5.04;67.34;94796.69;5031480;28;20041;-57
2021/12/26 04:07:23;;;;;;;23.13;13.95;;;;;;;4.75;67.86;94777.53;5031155;28;20361;-57
2021/12/26 04:09:48;;;;;;;21.90;15.25;;;;;;;4.99;67.65;94813.16;5031143;28;20498;-57
2021/12/26 04:12:14;;;;;;;38.88;25.15;;;;;;;5.01;67.69;94791.72;5030920;28;20025;-58
2021/12/26 04:14:39;;;;;;;50.30;34.05;;;;;;;5.05;67.33;94811.16;5030927;28;20040;-60
2021/12/26 04:17:05;;;;;;;50.95;33.88;;;;;;;5.03;67.35;94806.97;5031400;28;20045;-62
2021/12/26 04:19:31;;;;;;;47.75;33.58;;;;;;;4.84;67.53;94802.69;5031543;28;20040;-57
2021/12/26 04:21:56;;;;;;;54.83;34.65;;;;;;;4.72;68.00;94816.00;5031050;28;20080;-55
2021/12/26 04:24:22;;;;;;;47.75;31.17;;;;;;;4.35;67.84;94757.13;5030498;28;20053;-58
2021/12/26 04:26:48;;;;;;;50.20;32.65;;;;;;;4.83;67.42;94820.66;5030442;28;20033;-58
2021/12/26 04:29:13;;;;;;;48.97;33.25;;;;;;;4.74;67.54;94798.91;5031350;28;20393;-57
2021/12/26 04:31:39;;;;;;;47.05;32.50;;;;;;;4.71;67.71;94788.81;5030828;28;20466;-59
2021/12/26 04:34:05;;;;;;;47.22;31.00;;;;;;;4.70;67.41;94789.69;5030932;28;20745;-56
2021/12/26 04:36:30;;;;;;;46.08;31.30;;;;;;;4.60;67.39;94771.38;5029090;28;20030;-58
2021/12/26 04:38:56;;;;;;;48.00;30.05;;;;;;;4.60;67.95;94795.19;5030914;28;20527;-61
2021/12/26 04:41:21;;;;;;;45.80;29.63;;;;;;;4.88;67.25;94822.09;5031082;28;20117;-57
2021/12/26 04:43:47;;;;;;;45.25;31.83;;;;;;;4.63;67.86;94786.56;5030564;28;20018;-58
2021/12/26 04:46:12;;;;;;;49.58;29.65;;;;;;;4.62;68.62;94818.09;5030841;28;20032;-58
2021/12/26 04:48:41;;;;;;;40.15;28.10;;;;;;;4.72;68.98;94816.00;5030249;28;20408;-56
2021/12/26 04:51:09;;;;;;;47.10;29.38;;;;;;;4.63;69.14;94811.28;5030770;28;20017;-60
2021/12/26 04:53:36;;;;;;;43.67;26.40;;;;;;;4.72;69.20;94816.84;5030315;28;20524;-58
2021/12/26 04:56:02;;;;;;;39.03;25.90;;;;;;;4.79;69.06;94812.28;5030651;28;20451;-57
2021/12/26 04:58:28;;;;;;;45.83;28.92;;;;;;;4.72;69.23;94823.66;5030003;28;20414;-61
2021/12/26 05:00:53;;;;;;;39.97;26.40;;;;;;;4.86;69.00;94816.22;5029834;28;20025;-57
2021/12/26 05:03:19;;;;;;;42.30;28.50;;;;;;;4.88;68.78;94829.75;5030484;28;20024;-57
2021/12/26 05:05:45;;;;;;;46.22;30.40;;;;;;;4.94;68.44;94824.38;5030402;28;20175;-58
2021/12/26 05:08:12;;;;;;;42.28;28.42;;;;;;;4.96;68.25;94825.13;5030405;28;20236;-60
2021/12/26 05:10:38;;;;;;;37.17;25.88;;;;;;;4.43;68.21;94736.38;5029987;28;20037;-59
2021/12/26 05:13:04;;;;;;;42.58;27.58;;;;;;;5.07;67.70;94828.97;5029839;28;20036;-57
2021/12/26 05:15:31;;;;;;;48.47;31.27;;;;;;;4.99;67.51;94829.28;5029940;28;20228;-58
2021/12/26 05:17:57;;;;;;;46.28;29.70;;;;;;;5.05;67.65;94829.03;5030019;28;20044;-56
2021/12/26 05:20:24;;;;;;;43.30;29.52;;;;;;;5.01;67.83;94830.03;5030085;28;20064;-59
2021/12/26 05:22:52;;;;;;;45.60;31.10;;;;;;;5.13;67.32;94838.91;5027939;28;20037;-58
2021/12/26 05:25:18;;;;;;;38.85;27.17;;;;;;;5.15;67.22;94834.56;5029698;28;20033;-58
2021/12/26 05:27:44;;;;;;;34.95;22.90;;;;;;;4.89;66.97;94788.00;5029711;28;20404;-56
2021/12/26 05:30:12;;;;;;;30.48;21.17;;;;;;;5.10;65.77;94803.25;5030016;28;20032;-59
2021/12/26 05:32:39;;;;;;;32.58;21.48;;;;;;;5.35;66.33;94846.44;5030026;28;20104;-59
2021/12/26 05:35:05;;;;;;;34.95;24.15;;;;;;;5.25;66.39;94847.75;5029571;28;20030;-57
2021/12/26 05:37:31;;;;;;;37.28;22.45;;;;;;;5.16;67.29;94848.97;5028999;28;20400;-56
2021/12/26 05:39:57;;;;;;;34.60;22.50;;;;;;;5.19;67.53;94837.81;5029916;28;20026;-59
2021/12/26 05:42:24;;;;;;;35.08;24.38;;;;;;;5.36;66.97;94853.19;5030032;28;20025;-56
2021/12/26 05:44:50;;;;;;;39.13;25.23;;;;;;;5.48;66.59;94837.31;5029542;28;20037;-58
2021/12/26 05:47:16;;;;;;;35.67;24.92;;;;;;;5.30;67.48;94827.94;5029174;28;20037;-59
2021/12/26 05:49:41;;;;;;;36.00;26.73;;;;;;;5.42;67.58;94839.31;5029633;28;20049;-59
2021/12/26 05:52:07;;;;;;;38.35;26.42;;;;;;;5.41;67.93;94809.53;5029429;28;20538;-58
2021/12/26 05:54:33;;;;;;;40.35;26.85;;;;;;;5.64;67.88;94819.53;5029578;28;20025;-57
2021/12/26 05:56:59;;;;;;;38.30;28.25;;;;;;;5.31;68.25;94788.66;5029421;28;20049;-58
2021/12/26 05:59:25;;;;;;;43.00;29.58;;;;;;;5.39;68.88;94799.38;5029356;28;20064;-58
2021/12/26 06:01:50;;;;;;;43.20;28.13;;;;;;;5.45;68.91;94791.41;5029271;28;20064;-59
2021/12/26 06:04:16;;;;;;;39.72;28.23;;;;;;;5.48;69.27;94798.94;5029278;28;20022;-57
2021/12/26 06:06:43;;;;;;;43.03;28.13;;;;;;;5.54;69.62;94797.81;5029042;28;20455;-57
2021/12/26 06:09:09;;;;;;;45.40;30.13;;;;;;;5.14;69.85;94769.00;5028923;28;20041;-59
2021/12/26 06:11:35;;;;;;;40.40;25.38;;;;;;;5.00;71.15;94800.28;5028727;28;20132;-59
2021/12/26 06:14:00;;;;;;;41.95;25.95;;;;;;;4.84;71.93;94766.06;5029230;28;20442;-58
2021/12/26 06:16:26;;;;;;;41.53;26.25;;;;;;;4.50;72.17;94747.97;5028979;28;20052;-59
2021/12/26 06:18:51;;;;;;;39.78;26.33;;;;;;;4.69;73.67;94771.00;5027615;28;20432;-59
2021/12/26 06:21:17;;;;;;;32.15;21.38;;;;;;;4.97;72.70;94770.59;5028928;28;20100;-59
2021/12/26 06:23:50;;;;;;;34.85;22.50;;;;;;;4.55;73.52;94733.28;5028386;28;20112;-59
2021/12/26 06:26:15;;;;;;;33.25;22.75;;;;;;;4.77;74.15;94781.69;5029131;28;20025;-60
2021/12/26 06:28:41;;;;;;;32.80;22.38;;;;;;;4.75;74.46;94780.91;5028949;28;20506;-58
2021/12/26 06:31:06;;;;;;;39.40;24.90;;;;;;;4.20;73.99;94699.09;5028912;28;20450;-60
2021/12/26 06:33:32;;;;;;;36.50;23.92;;;;;;;4.80;74.50;94770.50;5028874;28;20382;-60
2021/12/26 06:35:57;;;;;;;36.80;23.80;;;;;;;4.27;73.52;94656.25;5028057;28;20033;-59
2021/12/26 06:38:23;;;;;;;32.78;21.77;;;;;;;4.69;73.04;94753.09;5028831;28;20037;-63
2021/12/26 06:40:48;;;;;;;34.10;21.98;;;;;;;4.63;74.33;94788.31;5028541;28;20040;-57
2021/12/26 06:43:13;;;;;;;31.77;20.50;;;;;;;4.52;74.68;94758.13;5028777;28;20029;-58
2021/12/26 06:45:39;;;;;;;25.77;17.83;;;;;;;4.77;74.30;94797.03;5028536;28;20448;-60
2021/12/26 06:48:06;;;;;;;26.38;18.25;;;;;;;4.75;73.91;94780.91;5028055;28;20051;-61
2021/12/26 06:50:32;;;;;;;25.70;16.50;;;;;;;4.79;74.15;94815.66;5028500;28;20053;-56
2021/12/26 06:52:58;;;;;;;24.88;16.55;;;;;;;5.00;74.78;94797.75;5028495;28;20075;-59
2021/12/26 06:55:23;;;;;;;22.58;14.82;;;;;;;5.08;72.88;94805.91;5022732;28;20043;-60
2021/12/26 06:57:49;;;;;;;21.95;13.70;;;;;;;5.12;72.08;94794.63;5024386;28;20045;-59
2021/12/26 07:00:17;;;;;;;21.33;14.48;;;;;;;5.32;71.50;94815.91;5004373;28;20049;-58
2021/12/26 07:02:43;;;;;;;18.92;12.68;;;;;;;5.50;70.07;94811.66;5005009;28;20108;-59
2021/12/26 07:05:12;;;;;;;17.45;12.23;;;;;;;5.49;70.27;94815.97;5004749;28;20497;-57
2021/12/26 07:07:38;;;;;;;21.98;12.88;;;;;;;5.33;69.38;94771.53;5005261;28;20029;-55
2021/12/26 07:10:05;;;;;;;18.08;12.50;;;;;;;5.65;69.56;94833.97;5000035;28;20042;-58
2021/12/26 07:12:30;;;;;;;14.35;9.27;;;;;;;5.38;70.92;94843.75;4998873;28;20037;-57
2021/12/26 07:14:56;;;;;;;21.38;12.75;;;;;;;5.14;71.63;94805.59;5000671;28;20493;-57
2021/12/26 07:17:22;;;;;;;20.40;13.70;;;;;;;5.14;71.84;94812.44;5002348;28;20040;-58
2021/12/26 07:19:47;;;;;;;17.92;12.40;;;;;;;4.92;72.63;94774.22;5001460;28;20030;-58
2021/12/26 07:22:13;;;;;;;17.38;12.63;;;;;;;5.10;71.78;94795.56;5004716;28;20069;-57
2021/12/26 07:24:43;;;;;;;15.60;11.70;;;;;;;5.36;71.75;94834.47;5004581;28;20030;-59
2021/12/26 07:27:12;;;;;;;19.35;12.52;;;;;;;5.62;71.03;94826.44;5005045;28;20034;-58
2021/12/26 07:29:38;;;;;;;17.67;12.43;;;;;;;5.47;71.13;94806.69;5005837;28;20029;-56
2021/12/26 07:32:04;;;;;;;18.35;12.27;;;;;;;5.47;70.51;94783.69;5004781;28;20063;-57
2021/12/26 07:34:29;;;;;;;21.80;13.02;;;;;;;5.81;70.24;94830.69;5004062;28;20034;-56
2021/12/26 07:36:55;;;;;;;17.85;13.75;;;;;;;5.70;69.66;94809.00;5001367;28;20057;-57
2021/12/26 07:39:20;;;;;;;16.70;11.80;;;;;;;5.79;70.41;94820.53;5004012;28;20064;-59
2021/12/26 07:41:46;;;;;;;17.65;12.20;;;;;;;5.80;70.05;94826.47;5004172;28;20068;-59
2021/12/26 07:44:11;;;;;;;16.73;10.88;;;;;;;5.63;70.25;94807.63;5002865;28;20041;-60
2021/12/26 07:46:37;;;;;;;19.73;13.48;;;;;;;5.77;70.61;94811.25;5003811;28;20168;-59
2021/12/26 07:49:03;;;;;;;17.25;12.07;;;;;;;5.89;70.71;94826.06;5003706;28;20041;-59
2021/12/26 07:51:28;;;;;;;19.45;12.63;;;;;;;6.10;69.99;94816.53;5004959;28;20030;-59
2021/12/26 07:53:59;;;;;;;22.17;14.55;;;;;;;5.74;70.25;94765.34;5003904;28;20231;-58
2021/12/26 07:56:24;;;;;;;19.05;12.88;;;;;;;6.18;70.26;94821.28;5004754;28;20834;-58
2021/12/26 07:58:50;;;;;;;19.30;12.88;;;;;;;6.17;69.71;94812.78;5003866;28;20134;-58
2021/12/26 08:01:15;;;;;;;21.63;14.77;;;;;;;6.06;70.36;94805.59;5005860;28;20096;-60
2021/12/26 08:03:41;;;;;;;19.38;14.68;;;;;;;6.14;70.86;94838.53;5008172;28;20034;-58
2021/12/26 08:06:07;;;;;;;21.38;14.75;;;;;;;5.87;70.48;94761.28;5008591;28;20030;-59
2021/12/26 08:08:33;;;;;;;20.40;13.88;;;;;;;6.04;70.35;94750.28;5006944;28;20049;-59
2021/12/26 08:10:59;;;;;;;18.98;13.60;;;;;;;6.42;70.60;94804.69;5007913;28;20038;-58
2021/12/26 08:13:24;;;;;;;24.70;15.80;;;;;;;6.56;69.86;94805.72;5008176;28;20086;-60
2021/12/26 08:15:50;;;;;;;20.58;14.50;;;;;;;6.33;69.66;94756.50;5008350;28;20026;-57
2021/12/26 08:18:15;;;;;;;23.13;14.77;;;;;;;6.35;70.60;94780.31;5038903;28;20111;-57
2021/12/26 08:20:42;;;;;;;21.27;12.88;;;;;;;6.51;68.20;94757.31;5007290;28;20037;-58
2021/12/26 08:23:07;;;;;;;19.23;13.40;;;;;;;6.83;67.54;94789.88;5007540;28;20030;-59
2021/12/26 08:25:33;;;;;;;17.08;11.65;;;;;;;6.92;66.08;94786.81;5007223;28;20044;-58
2021/12/26 08:27:58;;;;;;;17.15;11.98;;;;;;;6.44;65.83;94718.38;5007558;28;20026;-60
2021/12/26 08:30:26;;;;;;;19.23;12.30;;;;;;;7.20;65.39;94787.91;5007263;28;20029;-57
2021/12/26 08:32:54;;;;;;;20.92;12.82;;;;;;;7.11;65.16;94749.03;5007565;28;20030;-58
2021/12/26 08:35:19;;;;;;;19.45;11.07;;;;;;;7.56;64.10;94790.25;5006744;28;20026;-56
2021/12/26 08:37:47;;;;;;;18.77;12.95;;;;;;;7.59;63.63;94795.22;5007098;28;20030;-60
2021/12/26 08:40:14;;;;;;;21.92;14.43;;;;;;;7.41;63.82;94770.53;5007069;28;20037;-58
2021/12/26 08:42:40;;;;;;;18.58;11.60;;;;;;;7.29;64.58;94782.31;5007469;28;20096;-59
2021/12/26 08:45:06;;;;;;;18.33;11.85;;;;;;;7.22;64.66;94770.72;5038280;28;20566;-58
2021/12/26 08:47:32;;;;;;;16.83;10.85;;;;;;;7.44;64.10;94790.91;5007255;28;20066;-55
2021/12/26 08:49:57;;;;;;;14.30;10.13;;;;;;;7.47;64.16;94793.31;5006935;28;20045;-58
2021/12/26 08:52:22;;;;;;;15.50;10.52;;;;;;;7.64;63.96;94797.50;5007569;28;20112;-59
2021/12/26 08:54:48;;;;;;;16.73;10.90;;;;;;;7.63;62.85;94765.06;5007699;28;20038;-58
2021/12/26 08:57:15;;;;;;;15.32;10.30;;;;;;;7.76;62.59;94796.84;5006363;28;20065;-57
2021/12/26 08:59:41;;;;;;;18.95;14.10;;;;;;;7.73;63.34;94809.84;5006877;28;20042;-58
2021/12/26 09:02:08;;;;;;;19.45;13.77;;;;;;;7.91;63.49;94795.97;5006790;28;20038;-58
2021/12/26 09:04:36;;;;;;;19.63;13.35;;;;;;;8.00;62.95;94796.38;5004887;28;20053;-58
2021/12/26 09:07:02;;;;;;;18.73;14.20;;;;;;;7.80;63.24;94779.53;5006585;28;20022;-58
2021/12/26 09:09:29;;;;;;;18.17;13.52;;;;;;;8.03;63.39;94796.22;5005027;28;20065;-57
2021/12/26 09:11:55;;;;;;;21.23;13.40;;;;;;;7.93;63.15;94769.41;5005650;28;20168;-60
2021/12/26 09:14:21;;;;;;;19.90;14.48;;;;;;;7.48;63.99;94759.88;5006496;28;20029;-57
2021/12/26 09:16:46;;;;;;;20.23;13.77;;;;;;;7.33;63.85;94737.63;5006493;28;20036;-60
2021/12/26 09:19:12;;;;;;;20.65;14.25;;;;;;;7.54;64.58;94771.53;5005611;28;20068;-57
2021/12/26 09:21:38;;;;;;;24.15;16.35;;;;;;;7.59;64.28;94767.00;5005949;28;20038;-56
2021/12/26 09:24:05;;;;;;;21.73;14.75;;;;;;;7.44;64.65;94742.16;5006694;28;20026;-59
2021/12/26 09:26:30;;;;;;;20.38;14.25;;;;;;;7.80;63.43;94764.94;5007121;28;20134;-59
2021/12/26 09:28:58;;;;;;;18.75;14.10;;;;;;;8.19;62.19;94767.91;5005863;28;20116;-58
2021/12/26 09:31:23;;;;;;;21.15;13.10;;;;;;;8.20;61.41;94747.28;5007054;28;20026;-61
2021/12/26 09:33:49;;;;;;;17.48;13.48;;;;;;;8.51;61.57;94786.63;5005913;28;20034;-59
2021/12/26 09:36:15;;;;;;;18.48;14.55;;;;;;;8.57;61.32;94768.28;5005763;28;20560;-60
2021/12/26 09:38:40;;;;;;;20.05;13.95;;;;;;;8.57;60.94;94747.72;5006250;28;20029;-58
2021/12/26 09:41:06;;;;;;;19.90;14.10;;;;;;;8.74;60.16;94759.56;5006434;28;20045;-56
2021/12/26 09:43:31;;;;;;;19.15;12.85;;;;;;;8.97;60.06;94770.22;5007022;28;20041;-59
2021/12/26 09:45:57;;;;;;;21.55;13.63;;;;;;;9.36;59.21;94776.41;5009627;28;20022;-59
2021/12/26 09:48:22;;;;;;;22.55;14.70;;;;;;;9.62;58.38;94789.41;5007567;28;20033;-55
2021/12/26 09:50:48;;;;;;;17.63;13.45;;;;;;;9.74;57.54;94763.69;5009196;28;20405;-58
2021/12/26 09:53:14;;;;;;;20.63;14.48;;;;;;;9.96;57.40;94757.16;5008303;28;20687;-59
2021/12/26 09:55:40;;;;;;;19.95;14.50;;;;;;;10.18;56.20;94761.72;5008837;28;20117;-58
2021/12/26 09:58:05;;;;;;;18.70;13.73;;;;;;;10.39;56.38;94759.53;5009070;28;20050;-61
2021/12/26 10:00:33;;;;;;;19.85;14.02;;;;;;;10.75;54.32;94776.03;5009016;28;20030;-61
2021/12/26 10:03:16;;;;;;;20.80;14.88;;;;;;;10.65;54.41;94746.66;5009493;28;20037;-60
2021/12/26 10:06:10;;;;;;;20.30;14.80;;;;;;;11.13;53.47;94785.50;5009183;28;20457;-61
2021/12/26 10:09:01;;;;;;;19.92;13.68;;;;;;;11.59;52.54;94771.13;5008515;28;20049;-60
2021/12/26 10:11:35;;;;;;;18.10;12.83;;;;;;;11.98;50.75;94774.41;5008411;28;20034;-61
2021/12/26 10:14:12;;;;;;;18.83;14.40;;;;;;;12.35;50.87;94756.22;5008854;28;20541;-59
2021/12/26 10:16:43;;;;;;;21.13;15.18;;;;;;;13.12;48.33;94758.19;5009247;28;20029;-60
2021/12/26 10:19:10;;;;;;;21.05;13.63;;;;;;;13.20;46.59;94761.00;5008719;28;20037;-62
2021/12/26 10:21:41;;;;;;;17.25;11.80;;;;;;;12.90;46.67;94771.94;5007247;28;20494;-58
2021/12/26 10:24:20;;;;;;;18.65;12.30;;;;;;;13.33;47.27;94783.38;5007700;28;20385;-60
2021/12/26 10:26:51;;;;;;;13.02;9.80;;;;;;;14.01;44.15;94758.13;5008594;28;20045;-58
2021/12/26 10:29:33;;;;;;;17.20;9.60;;;;;;;14.68;43.67;94772.56;5009104;28;20048;-61
2021/12/26 10:32:13;;;;;;;16.67;10.32;;;;;;;15.40;41.58;94767.44;5009001;28;20064;-60
2021/12/26 10:34:52;;;;;;;12.60;10.32;;;;;;;16.27;40.25;94760.72;5008720;28;20092;-61
2021/12/26 10:37:22;;;;;;;14.70;10.82;;;;;;;16.83;38.73;94752.13;5008256;28;20515;-60
2021/12/26 10:39:55;;;;;;;11.77;9.02;;;;;;;17.54;37.34;94757.78;5008532;28;20038;-61
2021/12/26 10:42:24;;;;;;;15.95;10.60;;;;;;;17.55;36.46;94757.63;5008164;28;20033;-60
2021/12/26 10:44:52;;;;;;;12.43;10.48;;;;;;;18.05;35.46;94737.28;5008664;28;20040;-61
2021/12/26 10:47:23;;;;;;;15.18;11.73;;;;;;;18.41;34.51;94727.63;5006566;28;20030;-58
2021/12/26 10:50:09;;;;;;;17.60;12.35;;;;;;;17.99;35.78;94728.28;5008387;28;20477;-58
2021/12/26 10:52:41;;;;;;;15.35;11.65;;;;;;;17.20;37.50;94740.09;5008252;28;20045;-59
2021/12/26 10:55:15;;;;;;;14.10;11.20;;;;;;;17.44;37.08;94750.00;5008310;28;20030;-61
2021/12/26 10:57:47;;;;;;;17.15;11.43;;;;;;;17.78;35.97;94758.03;5007916;28;20121;-58
2021/12/26 11:00:24;;;;;;;15.88;10.60;;;;;;;18.20;35.77;94733.22;5006231;28;20038;-58
2021/12/26 11:02:51;;;;;;;17.00;11.32;;;;;;;18.47;35.22;94747.13;5008559;28;20026;-60
2021/12/26 11:05:24;;;;;;;13.23;10.48;;;;;;;18.76;34.13;94751.22;5006600;28;20129;-58
2021/12/26 11:07:57;;;;;;;16.58;12.38;;;;;;;19.50;33.24;94725.50;5008418;28;20109;-57
2021/12/26 11:10:47;;;;;;;22.45;14.73;;;;;;;19.33;33.30;94750.75;5008412;28;20026;-60
2021/12/26 11:13:20;;;;;;;22.95;15.60;;;;;;;18.53;34.39;94730.84;5006108;28;20894;-59
2021/12/26 11:15:48;;;;;;;22.95;16.80;;;;;;;18.84;34.13;94735.63;5006262;28;20037;-58
2021/12/26 11:18:16;;;;;;;21.27;16.98;;;;;;;17.97;35.50;94725.81;5006859;28;20054;-58
2021/12/26 11:20:45;;;;;;;22.58;18.70;;;;;;;19.01;34.23;94754.84;5008274;28;20041;-57
2021/12/26 11:23:14;;;;;;;22.75;16.25;;;;;;;19.05;33.26;94689.06;5007913;28;20057;-59
2021/12/26 11:25:45;;;;;;;25.25;17.63;;;;;;;19.88;32.68;94745.06;5008241;28;20036;-57
2021/12/26 11:28:16;;;;;;;20.27;16.65;;;;;;;19.13;33.87;94724.03;5007789;28;20100;-58
2021/12/26 11:30:43;;;;;;;;;;;;;;;18.44;35.35;94753.44;5006776;28;20108;-57
2021/12/26 11:33:09;;;;;;;25.92;19.13;;;;;;;18.67;34.91;94742.53;5007819;28;19933;-58